sensor_id;sensor_type;location;lat;lon;timestamp;P1;durP1;ratioP1;P2;durP2;ratioP2
75716;SDS011;64333;50.138;14.332;2023-05-10T00:02:01;5.20;;;3.10;;
75716;SDS011;64333;50.138;14.332;2023-05-10T00:04:26;3.70;;;2.83;;
75716;SDS011;64333;50.138;14.332;2023-05-10T00:06:52;6.57;;;3.20;;
75716;SDS011;64333;50.138;14.332;2023-05-10T00:09:18;4.18;;;2.75;;
75716;SDS011;64333;50.138;14.332;2023-05-10T00:11:44;5.22;;;2.85;;
75716;SDS011;64333;50.138;14.332;2023-05-10T00:14:09;5.72;;;3.15;;
75716;SDS011;64333;50.138;14.332;2023-05-10T00:16:34;3.78;;;2.85;;
75716;SDS011;64333;50.138;14.332;2023-05-10T00:19:00;3.75;;;3.10;;
75716;SDS011;64333;50.138;14.332;2023-05-10T00:21:25;4.95;;;3.30;;
75716;SDS011;64333;50.138;14.332;2023-05-10T00:23:51;4.70;;;3.05;;
75716;SDS011;64333;50.138;14.332;2023-05-10T00:26:16;4.60;;;2.80;;
75716;SDS011;64333;50.138;14.332;2023-05-10T00:28:42;3.80;;;2.70;;
75716;SDS011;64333;50.138;14.332;2023-05-10T00:31:07;5.22;;;3.08;;
75716;SDS011;64333;50.138;14.332;2023-05-10T00:33:33;3.97;;;3.00;;
75716;SDS011;64333;50.138;14.332;2023-05-10T00:35:58;4.90;;;2.80;;
75716;SDS011;64333;50.138;14.332;2023-05-10T00:38:23;4.07;;;2.90;;
75716;SDS011;64333;50.138;14.332;2023-05-10T00:40:49;5.13;;;3.20;;
75716;SDS011;64333;50.138;14.332;2023-05-10T00:43:14;4.40;;;2.67;;
75716;SDS011;64333;50.138;14.332;2023-05-10T00:45:40;4.68;;;2.88;;
75716;SDS011;64333;50.138;14.332;2023-05-10T00:48:06;4.63;;;3.00;;
75716;SDS011;64333;50.138;14.332;2023-05-10T00:50:32;4.38;;;2.90;;
75716;SDS011;64333;50.138;14.332;2023-05-10T00:52:59;4.10;;;3.20;;
75716;SDS011;64333;50.138;14.332;2023-05-10T00:55:25;5.40;;;2.92;;
75716;SDS011;64333;50.138;14.332;2023-05-10T00:57:51;6.07;;;3.25;;
75716;SDS011;64333;50.138;14.332;2023-05-10T01:00:18;3.40;;;2.83;;
75716;SDS011;64333;50.138;14.332;2023-05-10T01:02:46;5.13;;;2.78;;
75716;SDS011;64333;50.138;14.332;2023-05-10T01:05:12;4.57;;;3.47;;
75716;SDS011;64333;50.138;14.332;2023-05-10T01:07:38;5.57;;;3.20;;
75716;SDS011;64333;50.138;14.332;2023-05-10T01:10:07;3.75;;;2.95;;
75716;SDS011;64333;50.138;14.332;2023-05-10T01:12:34;6.05;;;3.53;;
75716;SDS011;64333;50.138;14.332;2023-05-10T01:15:02;5.63;;;3.17;;
75716;SDS011;64333;50.138;14.332;2023-05-10T01:17:28;4.13;;;2.75;;
75716;SDS011;64333;50.138;14.332;2023-05-10T01:19:54;5.25;;;3.40;;
75716;SDS011;64333;50.138;14.332;2023-05-10T01:33:39;3.90;;;2.78;;
75716;SDS011;64333;50.138;14.332;2023-05-10T01:36:08;4.68;;;3.03;;
75716;SDS011;64333;50.138;14.332;2023-05-10T01:41:37;5.13;;;3.35;;
75716;SDS011;64333;50.138;14.332;2023-05-10T01:46:35;3.53;;;2.63;;
75716;SDS011;64333;50.138;14.332;2023-05-10T01:49:02;5.35;;;2.92;;
75716;SDS011;64333;50.138;14.332;2023-05-10T01:51:33;4.57;;;3.10;;
75716;SDS011;64333;50.138;14.332;2023-05-10T01:54:04;9.45;;;3.55;;
75716;SDS011;64333;50.138;14.332;2023-05-10T01:56:31;4.40;;;3.08;;
75716;SDS011;64333;50.138;14.332;2023-05-10T01:58:59;4.68;;;2.92;;
75716;SDS011;64333;50.138;14.332;2023-05-10T02:01:29;5.05;;;3.33;;
75716;SDS011;64333;50.138;14.332;2023-05-10T02:03:56;4.07;;;2.92;;
75716;SDS011;64333;50.138;14.332;2023-05-10T02:06:22;3.97;;;2.97;;
75716;SDS011;64333;50.138;14.332;2023-05-10T02:08:50;4.03;;;2.70;;
75716;SDS011;64333;50.138;14.332;2023-05-10T02:11:17;5.15;;;3.38;;
75716;SDS011;64333;50.138;14.332;2023-05-10T02:13:47;6.03;;;3.22;;
75716;SDS011;64333;50.138;14.332;2023-05-10T02:16:15;4.47;;;2.80;;
75716;SDS011;64333;50.138;14.332;2023-05-10T02:18:42;4.47;;;3.00;;
75716;SDS011;64333;50.138;14.332;2023-05-10T02:21:09;4.38;;;2.97;;
75716;SDS011;64333;50.138;14.332;2023-05-10T02:23:35;4.32;;;3.00;;
75716;SDS011;64333;50.138;14.332;2023-05-10T02:26:02;5.80;;;2.78;;
75716;SDS011;64333;50.138;14.332;2023-05-10T02:28:28;4.25;;;2.75;;
75716;SDS011;64333;50.138;14.332;2023-05-10T02:30:55;5.18;;;3.33;;
75716;SDS011;64333;50.138;14.332;2023-05-10T02:33:21;5.68;;;3.30;;
75716;SDS011;64333;50.138;14.332;2023-05-10T02:35:47;4.35;;;2.97;;
75716;SDS011;64333;50.138;14.332;2023-05-10T02:38:14;5.28;;;3.83;;
75716;SDS011;64333;50.138;14.332;2023-05-10T02:40:41;5.57;;;3.45;;
75716;SDS011;64333;50.138;14.332;2023-05-10T02:43:09;4.38;;;3.50;;
75716;SDS011;64333;50.138;14.332;2023-05-10T02:45:39;5.28;;;3.20;;
75716;SDS011;64333;50.138;14.332;2023-05-10T02:48:05;4.57;;;3.13;;
75716;SDS011;64333;50.138;14.332;2023-05-10T02:50:32;5.15;;;3.25;;
75716;SDS011;64333;50.138;14.332;2023-05-10T02:53:03;6.28;;;3.03;;
75716;SDS011;64333;50.138;14.332;2023-05-10T02:55:38;4.63;;;3.30;;
75716;SDS011;64333;50.138;14.332;2023-05-10T02:58:06;4.40;;;3.10;;
75716;SDS011;64333;50.138;14.332;2023-05-10T03:00:31;6.15;;;3.45;;
75716;SDS011;64333;50.138;14.332;2023-05-10T03:02:57;6.32;;;3.28;;
75716;SDS011;64333;50.138;14.332;2023-05-10T03:05:22;5.63;;;3.10;;
75716;SDS011;64333;50.138;14.332;2023-05-10T03:07:48;6.47;;;3.47;;
75716;SDS011;64333;50.138;14.332;2023-05-10T03:10:13;5.10;;;2.90;;
75716;SDS011;64333;50.138;14.332;2023-05-10T03:17:54;5.67;;;2.70;;
75716;SDS011;64333;50.138;14.332;2023-05-10T03:20:24;3.65;;;3.20;;
75716;SDS011;64333;50.138;14.332;2023-05-10T03:22:53;7.70;;;3.28;;
75716;SDS011;64333;50.138;14.332;2023-05-10T03:25:25;6.18;;;3.20;;
75716;SDS011;64333;50.138;14.332;2023-05-10T03:27:51;6.32;;;3.67;;
75716;SDS011;64333;50.138;14.332;2023-05-10T03:30:17;4.32;;;2.90;;
75716;SDS011;64333;50.138;14.332;2023-05-10T03:32:43;3.38;;;2.70;;
75716;SDS011;64333;50.138;14.332;2023-05-10T03:35:09;5.18;;;3.10;;
75716;SDS011;64333;50.138;14.332;2023-05-10T03:37:35;4.60;;;3.10;;
75716;SDS011;64333;50.138;14.332;2023-05-10T03:40:01;7.28;;;4.53;;
75716;SDS011;64333;50.138;14.332;2023-05-10T03:42:28;7.43;;;4.60;;
75716;SDS011;64333;50.138;14.332;2023-05-10T03:44:53;7.40;;;4.75;;
75716;SDS011;64333;50.138;14.332;2023-05-10T03:47:18;5.18;;;3.72;;
75716;SDS011;64333;50.138;14.332;2023-05-10T03:49:44;6.97;;;4.10;;
75716;SDS011;64333;50.138;14.332;2023-05-10T03:52:10;4.63;;;3.63;;
75716;SDS011;64333;50.138;14.332;2023-05-10T03:54:35;5.97;;;3.90;;
75716;SDS011;64333;50.138;14.332;2023-05-10T03:57:01;4.13;;;3.25;;
75716;SDS011;64333;50.138;14.332;2023-05-10T03:59:27;5.13;;;2.90;;
75716;SDS011;64333;50.138;14.332;2023-05-10T04:01:53;6.00;;;3.42;;
75716;SDS011;64333;50.138;14.332;2023-05-10T04:04:18;5.20;;;3.50;;
75716;SDS011;64333;50.138;14.332;2023-05-10T04:06:45;5.15;;;3.28;;
75716;SDS011;64333;50.138;14.332;2023-05-10T04:09:11;4.82;;;3.33;;
75716;SDS011;64333;50.138;14.332;2023-05-10T04:11:36;5.03;;;3.17;;
75716;SDS011;64333;50.138;14.332;2023-05-10T04:14:02;5.20;;;3.45;;
75716;SDS011;64333;50.138;14.332;2023-05-10T04:16:27;5.57;;;3.55;;
75716;SDS011;64333;50.138;14.332;2023-05-10T04:18:53;4.20;;;3.25;;
75716;SDS011;64333;50.138;14.332;2023-05-10T04:21:18;4.95;;;3.38;;
75716;SDS011;64333;50.138;14.332;2023-05-10T04:23:43;5.72;;;3.95;;
75716;SDS011;64333;50.138;14.332;2023-05-10T04:26:09;5.40;;;3.60;;
75716;SDS011;64333;50.138;14.332;2023-05-10T04:28:34;6.45;;;4.43;;
75716;SDS011;64333;50.138;14.332;2023-05-10T04:31:03;5.82;;;3.47;;
75716;SDS011;64333;50.138;14.332;2023-05-10T04:33:29;4.18;;;3.17;;
75716;SDS011;64333;50.138;14.332;2023-05-10T04:35:55;5.35;;;3.53;;
75716;SDS011;64333;50.138;14.332;2023-05-10T04:38:21;5.40;;;3.08;;
75716;SDS011;64333;50.138;14.332;2023-05-10T04:40:46;7.70;;;4.18;;
75716;SDS011;64333;50.138;14.332;2023-05-10T04:43:11;3.42;;;2.67;;
75716;SDS011;64333;50.138;14.332;2023-05-10T04:45:37;4.50;;;3.45;;
75716;SDS011;64333;50.138;14.332;2023-05-10T04:48:02;5.57;;;4.15;;
75716;SDS011;64333;50.138;14.332;2023-05-10T04:50:28;6.28;;;3.47;;
75716;SDS011;64333;50.138;14.332;2023-05-10T04:52:53;6.70;;;3.70;;
75716;SDS011;64333;50.138;14.332;2023-05-10T04:55:18;4.32;;;3.13;;
75716;SDS011;64333;50.138;14.332;2023-05-10T04:57:44;4.35;;;3.20;;
75716;SDS011;64333;50.138;14.332;2023-05-10T05:00:10;5.35;;;3.17;;
75716;SDS011;64333;50.138;14.332;2023-05-10T05:02:36;5.78;;;3.33;;
75716;SDS011;64333;50.138;14.332;2023-05-10T05:05:01;4.85;;;3.30;;
75716;SDS011;64333;50.138;14.332;2023-05-10T05:07:27;5.93;;;3.22;;
75716;SDS011;64333;50.138;14.332;2023-05-10T05:09:52;4.85;;;3.35;;
75716;SDS011;64333;50.138;14.332;2023-05-10T05:12:17;4.60;;;3.20;;
75716;SDS011;64333;50.138;14.332;2023-05-10T05:14:43;5.05;;;3.38;;
75716;SDS011;64333;50.138;14.332;2023-05-10T05:17:08;5.20;;;3.17;;
75716;SDS011;64333;50.138;14.332;2023-05-10T05:19:33;4.90;;;3.00;;
75716;SDS011;64333;50.138;14.332;2023-05-10T05:21:59;4.32;;;3.00;;
75716;SDS011;64333;50.138;14.332;2023-05-10T05:24:24;5.22;;;3.00;;
75716;SDS011;64333;50.138;14.332;2023-05-10T05:26:50;4.50;;;3.00;;
75716;SDS011;64333;50.138;14.332;2023-05-10T05:29:15;5.78;;;2.90;;
75716;SDS011;64333;50.138;14.332;2023-05-10T05:31:41;5.90;;;2.97;;
75716;SDS011;64333;50.138;14.332;2023-05-10T05:34:06;4.95;;;2.88;;
75716;SDS011;64333;50.138;14.332;2023-05-10T05:36:31;3.72;;;2.97;;
75716;SDS011;64333;50.138;14.332;2023-05-10T05:38:57;4.75;;;3.15;;
75716;SDS011;64333;50.138;14.332;2023-05-10T05:41:23;4.03;;;3.10;;
75716;SDS011;64333;50.138;14.332;2023-05-10T05:43:49;3.63;;;2.80;;
75716;SDS011;64333;50.138;14.332;2023-05-10T05:46:15;6.30;;;3.15;;
75716;SDS011;64333;50.138;14.332;2023-05-10T05:48:40;4.82;;;2.83;;
75716;SDS011;64333;50.138;14.332;2023-05-10T05:51:06;5.05;;;3.08;;
75716;SDS011;64333;50.138;14.332;2023-05-10T05:53:31;4.30;;;2.90;;
75716;SDS011;64333;50.138;14.332;2023-05-10T05:55:57;4.65;;;3.65;;
75716;SDS011;64333;50.138;14.332;2023-05-10T05:58:23;4.65;;;3.40;;
75716;SDS011;64333;50.138;14.332;2023-05-10T06:00:50;4.45;;;2.92;;
75716;SDS011;64333;50.138;14.332;2023-05-10T06:03:17;4.15;;;3.03;;
75716;SDS011;64333;50.138;14.332;2023-05-10T06:05:42;4.72;;;2.80;;
75716;SDS011;64333;50.138;14.332;2023-05-10T06:08:08;4.35;;;2.63;;
75716;SDS011;64333;50.138;14.332;2023-05-10T06:10:33;3.42;;;2.17;;
75716;SDS011;64333;50.138;14.332;2023-05-10T06:12:58;5.15;;;3.28;;
75716;SDS011;64333;50.138;14.332;2023-05-10T06:15:24;5.10;;;2.97;;
75716;SDS011;64333;50.138;14.332;2023-05-10T06:17:50;4.20;;;2.72;;
75716;SDS011;64333;50.138;14.332;2023-05-10T06:20:16;3.03;;;2.40;;
75716;SDS011;64333;50.138;14.332;2023-05-10T06:22:41;5.00;;;2.80;;
75716;SDS011;64333;50.138;14.332;2023-05-10T06:25:07;5.00;;;2.53;;
75716;SDS011;64333;50.138;14.332;2023-05-10T06:27:33;8.57;;;3.15;;
75716;SDS011;64333;50.138;14.332;2023-05-10T06:29:59;5.35;;;2.65;;
75716;SDS011;64333;50.138;14.332;2023-05-10T06:32:24;3.00;;;2.22;;
75716;SDS011;64333;50.138;14.332;2023-05-10T06:34:50;3.78;;;2.67;;
75716;SDS011;64333;50.138;14.332;2023-05-10T06:37:16;5.00;;;2.83;;
75716;SDS011;64333;50.138;14.332;2023-05-10T06:39:41;5.40;;;3.38;;
75716;SDS011;64333;50.138;14.332;2023-05-10T06:42:06;4.57;;;2.75;;
75716;SDS011;64333;50.138;14.332;2023-05-10T06:44:32;3.88;;;2.95;;
75716;SDS011;64333;50.138;14.332;2023-05-10T06:46:57;5.35;;;2.72;;
75716;SDS011;64333;50.138;14.332;2023-05-10T06:49:23;5.07;;;3.00;;
75716;SDS011;64333;50.138;14.332;2023-05-10T06:51:48;3.85;;;2.80;;
75716;SDS011;64333;50.138;14.332;2023-05-10T06:54:14;4.68;;;3.00;;
75716;SDS011;64333;50.138;14.332;2023-05-10T06:56:39;4.20;;;2.88;;
75716;SDS011;64333;50.138;14.332;2023-05-10T06:59:04;4.78;;;2.55;;
75716;SDS011;64333;50.138;14.332;2023-05-10T07:01:30;4.75;;;2.95;;
75716;SDS011;64333;50.138;14.332;2023-05-10T07:03:55;6.72;;;3.10;;
75716;SDS011;64333;50.138;14.332;2023-05-10T07:06:21;7.50;;;3.03;;
75716;SDS011;64333;50.138;14.332;2023-05-10T07:08:46;4.00;;;3.00;;
75716;SDS011;64333;50.138;14.332;2023-05-10T07:11:11;5.57;;;2.90;;
75716;SDS011;64333;50.138;14.332;2023-05-10T07:13:37;4.07;;;2.85;;
75716;SDS011;64333;50.138;14.332;2023-05-10T07:16:04;4.43;;;3.10;;
75716;SDS011;64333;50.138;14.332;2023-05-10T07:18:31;5.60;;;3.08;;
75716;SDS011;64333;50.138;14.332;2023-05-10T07:20:57;5.20;;;2.90;;
75716;SDS011;64333;50.138;14.332;2023-05-10T07:23:22;3.83;;;2.83;;
75716;SDS011;64333;50.138;14.332;2023-05-10T07:25:48;4.15;;;3.00;;
75716;SDS011;64333;50.138;14.332;2023-05-10T07:28:17;4.25;;;3.10;;
75716;SDS011;64333;50.138;14.332;2023-05-10T07:30:43;4.90;;;3.30;;
75716;SDS011;64333;50.138;14.332;2023-05-10T07:33:09;5.47;;;3.60;;
75716;SDS011;64333;50.138;14.332;2023-05-10T07:35:36;3.90;;;2.95;;
75716;SDS011;64333;50.138;14.332;2023-05-10T07:38:01;3.90;;;2.63;;
75716;SDS011;64333;50.138;14.332;2023-05-10T07:40:27;3.40;;;2.80;;
75716;SDS011;64333;50.138;14.332;2023-05-10T07:42:53;4.80;;;3.05;;
75716;SDS011;64333;50.138;14.332;2023-05-10T07:45:18;4.15;;;3.05;;
75716;SDS011;64333;50.138;14.332;2023-05-10T07:47:44;6.20;;;3.10;;
75716;SDS011;64333;50.138;14.332;2023-05-10T07:50:09;4.50;;;3.03;;
75716;SDS011;64333;50.138;14.332;2023-05-10T07:52:35;4.97;;;3.28;;
75716;SDS011;64333;50.138;14.332;2023-05-10T07:55:00;6.70;;;3.42;;
75716;SDS011;64333;50.138;14.332;2023-05-10T07:57:26;3.38;;;2.65;;
75716;SDS011;64333;50.138;14.332;2023-05-10T07:59:51;3.45;;;2.55;;
75716;SDS011;64333;50.138;14.332;2023-05-10T08:02:16;2.83;;;2.53;;
75716;SDS011;64333;50.138;14.332;2023-05-10T08:04:42;3.80;;;2.47;;
75716;SDS011;64333;50.138;14.332;2023-05-10T08:07:07;3.47;;;2.42;;
75716;SDS011;64333;50.138;14.332;2023-05-10T08:09:32;4.13;;;2.83;;
75716;SDS011;64333;50.138;14.332;2023-05-10T08:11:58;3.92;;;2.88;;
75716;SDS011;64333;50.138;14.332;2023-05-10T08:14:24;3.30;;;3.00;;
75716;SDS011;64333;50.138;14.332;2023-05-10T08:16:50;3.00;;;2.17;;
75716;SDS011;64333;50.138;14.332;2023-05-10T08:19:16;3.83;;;3.28;;
75716;SDS011;64333;50.138;14.332;2023-05-10T08:21:44;5.25;;;2.78;;
75716;SDS011;64333;50.138;14.332;2023-05-10T08:24:09;4.03;;;2.50;;
75716;SDS011;64333;50.138;14.332;2023-05-10T08:26:35;5.25;;;2.92;;
75716;SDS011;64333;50.138;14.332;2023-05-10T08:29:00;3.83;;;3.10;;
75716;SDS011;64333;50.138;14.332;2023-05-10T08:31:26;3.47;;;2.83;;
75716;SDS011;64333;50.138;14.332;2023-05-10T08:33:51;5.13;;;3.17;;
75716;SDS011;64333;50.138;14.332;2023-05-10T08:36:17;3.20;;;2.72;;
75716;SDS011;64333;50.138;14.332;2023-05-10T08:38:46;3.72;;;2.70;;
75716;SDS011;64333;50.138;14.332;2023-05-10T08:41:12;4.18;;;2.90;;
75716;SDS011;64333;50.138;14.332;2023-05-10T08:43:38;3.60;;;3.08;;
75716;SDS011;64333;50.138;14.332;2023-05-10T08:46:04;4.30;;;2.75;;
75716;SDS011;64333;50.138;14.332;2023-05-10T08:48:30;4.05;;;2.80;;
75716;SDS011;64333;50.138;14.332;2023-05-10T08:50:59;3.65;;;2.72;;
75716;SDS011;64333;50.138;14.332;2023-05-10T08:53:25;4.07;;;2.83;;
75716;SDS011;64333;50.138;14.332;2023-05-10T08:55:52;5.50;;;3.38;;
75716;SDS011;64333;50.138;14.332;2023-05-10T08:58:18;4.03;;;3.05;;
75716;SDS011;64333;50.138;14.332;2023-05-10T09:00:44;3.90;;;3.08;;
75716;SDS011;64333;50.138;14.332;2023-05-10T09:03:10;5.50;;;3.22;;
75716;SDS011;64333;50.138;14.332;2023-05-10T09:05:36;5.95;;;2.95;;
75716;SDS011;64333;50.138;14.332;2023-05-10T09:08:02;3.67;;;2.95;;
75716;SDS011;64333;50.138;14.332;2023-05-10T09:10:27;3.42;;;3.10;;
75716;SDS011;64333;50.138;14.332;2023-05-10T09:12:57;3.42;;;3.13;;
75716;SDS011;64333;50.138;14.332;2023-05-10T09:15:23;3.55;;;2.90;;
75716;SDS011;64333;50.138;14.332;2023-05-10T09:17:49;4.10;;;2.90;;
75716;SDS011;64333;50.138;14.332;2023-05-10T09:20:15;6.20;;;3.25;;
75716;SDS011;64333;50.138;14.332;2023-05-10T09:22:42;3.20;;;2.90;;
75716;SDS011;64333;50.138;14.332;2023-05-10T09:25:08;3.92;;;3.22;;
75716;SDS011;64333;50.138;14.332;2023-05-10T09:27:35;4.35;;;3.20;;
75716;SDS011;64333;50.138;14.332;2023-05-10T09:30:01;3.40;;;2.90;;
75716;SDS011;64333;50.138;14.332;2023-05-10T09:32:38;4.15;;;2.90;;
75716;SDS011;64333;50.138;14.332;2023-05-10T09:35:08;3.28;;;2.97;;
75716;SDS011;64333;50.138;14.332;2023-05-10T09:37:39;3.78;;;3.38;;
75716;SDS011;64333;50.138;14.332;2023-05-10T09:40:12;3.55;;;2.92;;
75716;SDS011;64333;50.138;14.332;2023-05-10T09:42:55;2.90;;;2.67;;
75716;SDS011;64333;50.138;14.332;2023-05-10T09:45:21;2.88;;;2.28;;
75716;SDS011;64333;50.138;14.332;2023-05-10T09:47:47;4.20;;;2.60;;
75716;SDS011;64333;50.138;14.332;2023-05-10T09:50:13;3.25;;;2.92;;
75716;SDS011;64333;50.138;14.332;2023-05-10T09:52:48;3.20;;;2.90;;
75716;SDS011;64333;50.138;14.332;2023-05-10T09:55:16;3.25;;;2.65;;
75716;SDS011;64333;50.138;14.332;2023-05-10T09:57:42;3.65;;;2.70;;
75716;SDS011;64333;50.138;14.332;2023-05-10T10:00:08;3.03;;;2.15;;
75716;SDS011;64333;50.138;14.332;2023-05-10T10:02:37;4.78;;;3.03;;
75716;SDS011;64333;50.138;14.332;2023-05-10T10:05:04;3.92;;;2.70;;
75716;SDS011;64333;50.138;14.332;2023-05-10T10:07:31;3.25;;;2.78;;
75716;SDS011;64333;50.138;14.332;2023-05-10T10:09:58;3.72;;;2.72;;
75716;SDS011;64333;50.138;14.332;2023-05-10T10:12:23;4.78;;;2.58;;
75716;SDS011;64333;50.138;14.332;2023-05-10T10:14:50;3.83;;;3.20;;
75716;SDS011;64333;50.138;14.332;2023-05-10T10:17:16;4.03;;;2.92;;
75716;SDS011;64333;50.138;14.332;2023-05-10T10:19:42;3.03;;;2.72;;
75716;SDS011;64333;50.138;14.332;2023-05-10T10:22:07;2.53;;;2.33;;
75716;SDS011;64333;50.138;14.332;2023-05-10T10:24:33;3.38;;;2.40;;
75716;SDS011;64333;50.138;14.332;2023-05-10T10:27:02;2.42;;;2.22;;
75716;SDS011;64333;50.138;14.332;2023-05-10T10:34:43;2.97;;;2.70;;
75716;SDS011;64333;50.138;14.332;2023-05-10T10:37:08;3.45;;;2.55;;
75716;SDS011;64333;50.138;14.332;2023-05-10T10:39:34;2.80;;;2.50;;
75716;SDS011;64333;50.138;14.332;2023-05-10T10:42:03;3.25;;;2.63;;
75716;SDS011;64333;50.138;14.332;2023-05-10T10:52:35;2.80;;;2.25;;
75716;SDS011;64333;50.138;14.332;2023-05-10T10:57:42;2.70;;;2.50;;
75716;SDS011;64333;50.138;14.332;2023-05-10T11:00:26;2.22;;;2.13;;
75716;SDS011;64333;50.138;14.332;2023-05-10T11:05:41;2.28;;;2.08;;
75716;SDS011;64333;50.138;14.332;2023-05-10T11:08:16;2.95;;;2.42;;
75716;SDS011;64333;50.138;14.332;2023-05-10T11:10:54;2.97;;;2.30;;
75716;SDS011;64333;50.138;14.332;2023-05-10T11:16:15;2.85;;;2.25;;
75716;SDS011;64333;50.138;14.332;2023-05-10T11:21:28;6.75;;;2.17;;
75716;SDS011;64333;50.138;14.332;2023-05-10T11:23:58;3.97;;;2.40;;
75716;SDS011;64333;50.138;14.332;2023-05-10T11:26:25;3.08;;;2.50;;
75716;SDS011;64333;50.138;14.332;2023-05-10T11:28:55;2.30;;;2.08;;
75716;SDS011;64333;50.138;14.332;2023-05-10T11:31:21;3.35;;;2.38;;
75716;SDS011;64333;50.138;14.332;2023-05-10T11:36:46;3.10;;;2.30;;
75716;SDS011;64333;50.138;14.332;2023-05-10T11:39:05;2.90;;;2.40;;
75716;SDS011;64333;50.138;14.332;2023-05-10T11:41:34;2.97;;;2.45;;
75716;SDS011;64333;50.138;14.332;2023-05-10T11:44:00;2.38;;;2.05;;
75716;SDS011;64333;50.138;14.332;2023-05-10T11:46:27;2.08;;;1.98;;
75716;SDS011;64333;50.138;14.332;2023-05-10T11:48:55;2.40;;;2.20;;
75716;SDS011;64333;50.138;14.332;2023-05-10T11:51:23;2.80;;;2.10;;
75716;SDS011;64333;50.138;14.332;2023-05-10T11:53:50;2.65;;;2.40;;
75716;SDS011;64333;50.138;14.332;2023-05-10T11:56:20;3.97;;;2.13;;
75716;SDS011;64333;50.138;14.332;2023-05-10T11:58:57;2.60;;;2.30;;
75716;SDS011;64333;50.138;14.332;2023-05-10T12:01:23;4.05;;;2.50;;
75716;SDS011;64333;50.138;14.332;2023-05-10T12:03:52;3.28;;;2.53;;
75716;SDS011;64333;50.138;14.332;2023-05-10T12:06:19;3.10;;;2.35;;
75716;SDS011;64333;50.138;14.332;2023-05-10T12:08:46;3.63;;;2.53;;
75716;SDS011;64333;50.138;14.332;2023-05-10T12:11:13;2.92;;;2.20;;
75716;SDS011;64333;50.138;14.332;2023-05-10T12:13:40;4.85;;;2.53;;
75716;SDS011;64333;50.138;14.332;2023-05-10T12:16:20;3.08;;;2.30;;
75716;SDS011;64333;50.138;14.332;2023-05-10T12:18:48;2.88;;;2.08;;
75716;SDS011;64333;50.138;14.332;2023-05-10T12:21:16;9.77;;;2.30;;
75716;SDS011;64333;50.138;14.332;2023-05-10T12:23:42;2.22;;;1.92;;
75716;SDS011;64333;50.138;14.332;2023-05-10T12:26:10;3.03;;;2.40;;
75716;SDS011;64333;50.138;14.332;2023-05-10T12:28:35;2.90;;;2.60;;
75716;SDS011;64333;50.138;14.332;2023-05-10T12:31:02;2.38;;;2.15;;
75716;SDS011;64333;50.138;14.332;2023-05-10T12:33:34;3.35;;;2.22;;
75716;SDS011;64333;50.138;14.332;2023-05-10T12:36:03;2.70;;;2.33;;
75716;SDS011;64333;50.138;14.332;2023-05-10T12:38:33;3.17;;;2.30;;
75716;SDS011;64333;50.138;14.332;2023-05-10T12:40:59;4.38;;;2.42;;
75716;SDS011;64333;50.138;14.332;2023-05-10T12:43:26;3.50;;;2.22;;
75716;SDS011;64333;50.138;14.332;2023-05-10T12:45:51;3.83;;;2.53;;
75716;SDS011;64333;50.138;14.332;2023-05-10T12:48:20;2.72;;;2.42;;
75716;SDS011;64333;50.138;14.332;2023-05-10T12:50:48;3.20;;;2.17;;
75716;SDS011;64333;50.138;14.332;2023-05-10T12:53:14;3.60;;;2.45;;
75716;SDS011;64333;50.138;14.332;2023-05-10T12:55:43;2.45;;;1.90;;
75716;SDS011;64333;50.138;14.332;2023-05-10T12:58:09;2.95;;;2.38;;
75716;SDS011;64333;50.138;14.332;2023-05-10T13:00:37;4.50;;;2.55;;
75716;SDS011;64333;50.138;14.332;2023-05-10T13:03:03;3.90;;;2.13;;
75716;SDS011;64333;50.138;14.332;2023-05-10T13:05:31;4.00;;;2.58;;
75716;SDS011;64333;50.138;14.332;2023-05-10T13:07:57;2.75;;;2.30;;
75716;SDS011;64333;50.138;14.332;2023-05-10T13:10:22;3.13;;;2.25;;
75716;SDS011;64333;50.138;14.332;2023-05-10T13:12:48;3.28;;;2.35;;
75716;SDS011;64333;50.138;14.332;2023-05-10T13:15:14;3.28;;;2.38;;
75716;SDS011;64333;50.138;14.332;2023-05-10T13:17:39;3.15;;;2.40;;
75716;SDS011;64333;50.138;14.332;2023-05-10T13:20:05;3.90;;;2.42;;
75716;SDS011;64333;50.138;14.332;2023-05-10T13:22:31;2.70;;;2.38;;
75716;SDS011;64333;50.138;14.332;2023-05-10T13:24:57;3.63;;;2.50;;
75716;SDS011;64333;50.138;14.332;2023-05-10T13:27:22;2.63;;;2.20;;
75716;SDS011;64333;50.138;14.332;2023-05-10T13:29:47;5.07;;;2.35;;
75716;SDS011;64333;50.138;14.332;2023-05-10T13:32:13;2.90;;;2.53;;
75716;SDS011;64333;50.138;14.332;2023-05-10T13:34:38;2.92;;;2.40;;
75716;SDS011;64333;50.138;14.332;2023-05-10T13:37:04;2.50;;;2.30;;
75716;SDS011;64333;50.138;14.332;2023-05-10T13:39:29;2.97;;;2.20;;
75716;SDS011;64333;50.138;14.332;2023-05-10T13:41:58;5.25;;;2.42;;
75716;SDS011;64333;50.138;14.332;2023-05-10T13:44:23;3.75;;;2.67;;
75716;SDS011;64333;50.138;14.332;2023-05-10T13:46:49;3.75;;;2.53;;
75716;SDS011;64333;50.138;14.332;2023-05-10T13:49:14;3.63;;;2.70;;
75716;SDS011;64333;50.138;14.332;2023-05-10T13:51:40;4.30;;;2.75;;
75716;SDS011;64333;50.138;14.332;2023-05-10T13:54:05;2.65;;;2.42;;
75716;SDS011;64333;50.138;14.332;2023-05-10T13:56:31;3.35;;;2.80;;
75716;SDS011;64333;50.138;14.332;2023-05-10T13:58:56;8.73;;;3.40;;
75716;SDS011;64333;50.138;14.332;2023-05-10T14:01:23;5.03;;;2.83;;
75716;SDS011;64333;50.138;14.332;2023-05-10T14:03:48;4.53;;;3.00;;
75716;SDS011;64333;50.138;14.332;2023-05-10T14:06:14;8.70;;;4.18;;
75716;SDS011;64333;50.138;14.332;2023-05-10T14:08:39;4.05;;;3.13;;
75716;SDS011;64333;50.138;14.332;2023-05-10T14:11:05;4.75;;;2.90;;
75716;SDS011;64333;50.138;14.332;2023-05-10T14:13:30;3.97;;;2.80;;
75716;SDS011;64333;50.138;14.332;2023-05-10T14:15:56;5.38;;;3.47;;
75716;SDS011;64333;50.138;14.332;2023-05-10T14:18:21;7.07;;;3.47;;
75716;SDS011;64333;50.138;14.332;2023-05-10T14:20:47;6.20;;;3.95;;
75716;SDS011;64333;50.138;14.332;2023-05-10T14:23:12;4.45;;;3.42;;
75716;SDS011;64333;50.138;14.332;2023-05-10T14:25:39;3.42;;;3.13;;
75716;SDS011;64333;50.138;14.332;2023-05-10T14:28:05;4.35;;;3.30;;
75716;SDS011;64333;50.138;14.332;2023-05-10T14:30:31;4.43;;;3.30;;
75716;SDS011;64333;50.138;14.332;2023-05-10T14:32:59;3.88;;;3.17;;
75716;SDS011;64333;50.138;14.332;2023-05-10T14:35:26;4.68;;;3.17;;
75716;SDS011;64333;50.138;14.332;2023-05-10T14:37:52;4.20;;;3.60;;
75716;SDS011;64333;50.138;14.332;2023-05-10T14:40:17;6.43;;;4.80;;
75716;SDS011;64333;50.138;14.332;2023-05-10T14:42:42;5.55;;;4.38;;
75716;SDS011;64333;50.138;14.332;2023-05-10T14:45:09;3.75;;;3.15;;
75716;SDS011;64333;50.138;14.332;2023-05-10T14:47:35;4.30;;;3.40;;
75716;SDS011;64333;50.138;14.332;2023-05-10T14:50:00;4.63;;;3.60;;
75716;SDS011;64333;50.138;14.332;2023-05-10T14:52:25;4.55;;;3.63;;
75716;SDS011;64333;50.138;14.332;2023-05-10T14:54:51;4.13;;;3.45;;
75716;SDS011;64333;50.138;14.332;2023-05-10T14:57:17;4.43;;;3.95;;
75716;SDS011;64333;50.138;14.332;2023-05-10T14:59:42;5.22;;;3.83;;
75716;SDS011;64333;50.138;14.332;2023-05-10T15:02:08;6.20;;;4.13;;
75716;SDS011;64333;50.138;14.332;2023-05-10T15:04:34;4.95;;;3.80;;
75716;SDS011;64333;50.138;14.332;2023-05-10T15:06:59;5.47;;;4.30;;
75716;SDS011;64333;50.138;14.332;2023-05-10T15:09:25;4.25;;;3.65;;
75716;SDS011;64333;50.138;14.332;2023-05-10T15:11:52;7.10;;;4.45;;
75716;SDS011;64333;50.138;14.332;2023-05-10T15:14:19;4.75;;;3.92;;
75716;SDS011;64333;50.138;14.332;2023-05-10T15:16:44;6.57;;;4.07;;
75716;SDS011;64333;50.138;14.332;2023-05-10T15:19:09;4.15;;;3.75;;